createdAt,value
2023-05-15T00:03:48.937Z,4.94
2023-05-15T00:06:28.880Z,5.10
2023-05-15T00:09:02.246Z,5.08
2023-05-15T00:11:35.900Z,5.22
2023-05-15T00:14:09.217Z,5.04
2023-05-15T00:16:43.214Z,4.93
2023-05-15T00:29:55.886Z,5.24
2023-05-15T00:32:29.579Z,4.88
2023-05-15T00:35:02.897Z,5.14
2023-05-15T00:37:36.118Z,5.01
2023-05-15T00:40:11.907Z,5.32
2023-05-15T00:42:52.776Z,4.81
2023-05-15T00:55:51.876Z,4.97
2023-05-15T00:58:33.969Z,4.84
2023-05-15T01:01:08.479Z,4.63
2023-05-15T01:03:43.059Z,5.04
2023-05-15T01:06:16.131Z,4.86
2023-05-15T01:08:52.893Z,4.82
2023-05-15T01:11:29.342Z,4.93
2023-05-15T01:21:44.894Z,5.01
2023-05-15T01:25:19.263Z,4.91
2023-05-15T01:28:07.906Z,5.39
2023-05-15T01:30:44.538Z,4.98
2023-05-15T01:33:30.888Z,5.51
2023-05-15T01:36:15.675Z,5.28
2023-05-15T01:49:17.877Z,5.76
2023-05-15T01:52:05.894Z,5.90
2023-05-15T01:54:41.763Z,5.78
2023-05-15T01:57:22.880Z,5.69
2023-05-15T01:59:58.694Z,5.88
2023-05-15T02:02:35.062Z,5.90
2023-05-15T02:15:46.873Z,6.13
2023-05-15T02:18:20.270Z,6.24
2023-05-15T02:20:53.892Z,6.41
2023-05-15T02:23:27.248Z,6.18
2023-05-15T02:26:23.885Z,6.14
2023-05-15T02:29:13.124Z,6.58
2023-05-15T02:32:09.003Z,6.55
2023-05-15T02:42:07.861Z,6.48
2023-05-15T02:44:50.896Z,6.60
2023-05-15T02:47:28.716Z,6.73
2023-05-15T02:50:10.878Z,6.41
2023-05-15T02:52:44.317Z,6.49
2023-05-15T02:55:18.074Z,6.53
2023-05-15T02:57:51.324Z,6.64
2023-05-15T03:10:41.844Z,6.60
2023-05-15T03:13:22.848Z,6.48
2023-05-15T03:15:56.244Z,6.19
2023-05-15T03:18:29.894Z,6.29
2023-05-15T03:21:03.483Z,6.16
2023-05-15T03:37:18.868Z,5.90
2023-05-15T03:39:52.205Z,5.78
2023-05-15T03:42:25.879Z,5.18
2023-05-15T03:44:59.404Z,5.66
2023-05-15T03:47:32.944Z,5.56
2023-05-15T03:50:07.530Z,5.65
2023-05-15T03:52:42.904Z,5.22
2023-05-15T04:02:27.892Z,5.38
2023-05-15T04:05:07.952Z,4.70
2023-05-15T04:07:43.156Z,4.97
2023-05-15T04:10:16.952Z,4.49
2023-05-15T04:12:50.144Z,4.67
2023-05-15T04:15:27.237Z,4.82
2023-05-15T04:18:02.791Z,5.28
2023-05-15T04:30:52.865Z,5.40
2023-05-15T04:33:32.900Z,5.52
2023-05-15T04:36:08.271Z,5.19
2023-05-15T04:38:41.884Z,5.57
2023-05-15T04:41:15.266Z,5.40
2023-05-15T04:57:30.893Z,6.13
2023-05-15T05:00:06.311Z,6.29
2023-05-15T05:02:39.947Z,6.48
2023-05-15T05:05:17.599Z,6.47
2023-05-15T05:07:50.870Z,6.34
2023-05-15T05:10:24.205Z,6.21
2023-05-15T05:12:59.978Z,6.51
2023-05-15T05:22:44.870Z,6.56
2023-05-15T05:25:25.078Z,6.89
2023-05-15T05:28:01.097Z,6.68
2023-05-15T05:30:34.899Z,6.99
2023-05-15T05:33:08.253Z,6.84
2023-05-15T05:35:41.893Z,6.73
2023-05-15T05:49:20.888Z,7.04
2023-05-15T05:51:54.171Z,6.72
2023-05-15T05:54:27.902Z,7.14
2023-05-15T05:57:01.201Z,7.01
2023-05-15T05:59:34.894Z,6.72
2023-05-15T06:02:09.122Z,7.05
2023-05-15T06:18:24.973Z,7.16
2023-05-15T06:20:58.147Z,7.24
2023-05-15T06:23:34.468Z,7.13
2023-05-15T06:26:08.306Z,7.47
2023-05-15T06:28:41.920Z,7.13
2023-05-15T06:31:15.151Z,7.39
2023-05-15T06:44:05.860Z,7.13
2023-05-15T06:46:45.901Z,7.02
2023-05-15T06:49:19.196Z,7.37
2023-05-15T06:51:52.888Z,7.55
2023-05-15T06:54:26.194Z,7.53
2023-05-15T06:56:59.882Z,7.21
2023-05-15T07:10:13.913Z,7.37
2023-05-15T07:12:54.344Z,7.46
2023-05-15T07:15:34.885Z,7.57
2023-05-15T07:18:08.296Z,7.44
2023-05-15T07:20:41.955Z,7.71
2023-05-15T07:23:15.132Z,7.74
2023-05-15T07:36:21.853Z,7.93
2023-05-15T07:39:01.940Z,7.89
2023-05-15T07:41:35.181Z,8.21
2023-05-15T07:44:08.897Z,7.99
2023-05-15T07:46:43.033Z,7.79
2023-05-15T07:49:16.880Z,7.83
2023-05-15T07:51:52.315Z,8.07
2023-05-15T08:04:41.006Z,8.23
2023-05-15T08:07:22.882Z,8.07
2023-05-15T08:09:56.144Z,8.50
2023-05-15T08:12:29.886Z,8.20
2023-05-15T08:15:04.190Z,8.59
2023-05-15T08:17:37.930Z,8.46
2023-05-15T08:30:50.052Z,8.20
2023-05-15T08:33:23.097Z,8.27
2023-05-15T08:35:56.937Z,8.17
2023-05-15T08:38:30.165Z,8.02
2023-05-15T08:41:09.881Z,8.57
2023-05-15T08:57:47.874Z,8.53
2023-05-15T09:00:28.871Z,8.13
2023-05-15T09:03:02.253Z,8.01
2023-05-15T09:05:38.146Z,8.17
2023-05-15T09:08:17.677Z,8.01
2023-05-15T09:10:59.903Z,8.18
2023-05-15T09:24:28.917Z,8.14
2023-05-15T09:27:04.360Z,8.08
2023-05-15T09:29:39.974Z,8.84
2023-05-15T09:32:15.167Z,8.61
2023-05-15T09:34:51.020Z,8.71
2023-05-15T09:37:32.099Z,8.22
2023-05-15T09:50:38.864Z,8.77
2023-05-15T09:53:21.320Z,8.63
2023-05-15T09:55:55.384Z,8.39
2023-05-15T09:58:28.920Z,8.90
2023-05-15T10:01:02.159Z,9.31
2023-05-15T10:17:19.875Z,9.60
2023-05-15T10:19:58.172Z,9.67
2023-05-15T10:22:46.893Z,10.08
2023-05-15T10:25:31.281Z,9.76
2023-05-15T10:28:16.901Z,9.94
2023-05-15T10:30:52.813Z,9.86
2023-05-15T10:43:44.864Z,9.61
2023-05-15T10:46:24.975Z,9.80
2023-05-15T10:48:58.993Z,9.49
2023-05-15T10:51:34.874Z,9.45
2023-05-15T10:54:09.552Z,9.69
2023-05-15T10:56:44.894Z,9.16
2023-05-15T11:10:43.896Z,9.41
2023-05-15T11:13:17.188Z,9.11
2023-05-15T11:15:52.881Z,9.38
2023-05-15T11:18:26.282Z,9.26
2023-05-15T11:21:16.898Z,9.35
2023-05-15T11:24:04.640Z,9.19
2023-05-15T11:26:49.895Z,9.00
2023-05-15T11:37:05.847Z,9.66
2023-05-15T11:39:45.943Z,9.65
2023-05-15T11:42:21.205Z,9.71
2023-05-15T11:44:55.038Z,9.78
2023-05-15T11:47:30.888Z,9.79
2023-05-15T11:50:05.008Z,9.77
2023-05-15T11:52:38.754Z,9.73
2023-05-15T12:05:28.869Z,9.59
2023-05-15T12:08:08.892Z,9.33
2023-05-15T12:10:43.091Z,9.30
2023-05-15T12:13:24.885Z,8.70
2023-05-15T12:15:59.922Z,9.07
2023-05-15T12:32:16.003Z,7.76
2023-05-15T12:34:49.636Z,7.08
2023-05-15T12:37:25.871Z,6.66
2023-05-15T12:40:06.834Z,6.63
2023-05-15T12:42:48.958Z,6.30
2023-05-15T12:45:23.442Z,6.68
2023-05-15T12:47:59.069Z,6.94
2023-05-15T12:57:43.854Z,7.27
2023-05-15T13:00:25.081Z,7.42
2023-05-15T13:03:01.375Z,7.65
2023-05-15T13:05:43.885Z,7.96
2023-05-15T13:08:18.267Z,7.97
2023-05-15T13:10:53.881Z,7.80
2023-05-15T13:24:08.911Z,8.19
2023-05-15T13:26:42.127Z,8.66
2023-05-15T13:29:15.877Z,8.20
2023-05-15T13:31:49.363Z,8.18
2023-05-15T13:34:22.895Z,8.36
2023-05-15T13:36:56.099Z,8.30
2023-05-15T13:53:12.831Z,8.57
2023-05-15T13:55:46.600Z,8.76
2023-05-15T13:58:20.885Z,8.47
2023-05-15T14:00:54.178Z,8.52
2023-05-15T14:03:28.012Z,8.31
2023-05-15T14:06:01.274Z,8.22
2023-05-15T14:18:51.944Z,8.48
2023-05-15T14:21:31.865Z,9.01
2023-05-15T14:24:06.091Z,8.91
2023-05-15T14:26:39.884Z,8.81
2023-05-15T14:29:13.154Z,8.79
2023-05-15T14:31:47.924Z,9.08
2023-05-15T14:44:59.901Z,8.27
2023-05-15T14:47:33.172Z,8.60
2023-05-15T14:50:07.036Z,8.57
2023-05-15T14:52:40.161Z,8.76
2023-05-15T14:55:15.048Z,9.00
2023-05-15T14:57:48.940Z,8.81
2023-05-15T15:11:08.861Z,8.63
2023-05-15T15:13:48.894Z,8.67
2023-05-15T15:16:22.210Z,8.39
2023-05-15T15:18:55.997Z,8.60
2023-05-15T15:21:30.730Z,8.75
2023-05-15T15:24:03.875Z,8.39
2023-05-15T15:26:39.406Z,8.59
2023-05-15T15:39:34.855Z,8.47
2023-05-15T15:42:16.901Z,8.85
2023-05-15T15:44:50.218Z,8.55
2023-05-15T15:47:23.922Z,8.60
2023-05-15T15:49:57.340Z,8.42
2023-05-15T15:52:31.949Z,8.88
2023-05-15T16:05:43.933Z,8.24
2023-05-15T16:08:17.146Z,8.45
2023-05-15T16:10:50.887Z,8.66
2023-05-15T16:13:24.201Z,8.68
2023-05-15T16:15:57.912Z,8.76
2023-05-15T16:32:34.860Z,8.19
2023-05-15T16:35:15.957Z,8.32
2023-05-15T16:37:49.376Z,7.85
2023-05-15T16:40:22.944Z,8.05
2023-05-15T16:42:56.133Z,8.21
2023-05-15T16:45:29.876Z,8.23
2023-05-15T16:48:05.856Z,7.97
2023-05-15T16:58:08.954Z,9.04
2023-05-15T17:00:42.248Z,9.41
2023-05-15T17:03:18.058Z,8.95
2023-05-15T17:05:51.158Z,8.88
2023-05-15T17:08:24.892Z,9.11
2023-05-15T17:10:58.797Z,9.26
2023-05-15T17:26:28.896Z,9.23
2023-05-15T17:29:02.129Z,8.73
2023-05-15T17:31:35.979Z,8.79
2023-05-15T17:34:09.116Z,9.30
2023-05-15T17:36:42.903Z,8.89
2023-05-15T17:53:26.867Z,8.77
2023-05-15T17:56:06.878Z,8.83
2023-05-15T17:58:40.297Z,9.00
2023-05-15T18:01:14.117Z,9.10
2023-05-15T18:03:47.281Z,8.56
2023-05-15T18:06:21.856Z,8.43
2023-05-15T18:19:33.949Z,9.05
2023-05-15T18:22:07.107Z,9.27
2023-05-15T18:24:40.907Z,9.00
2023-05-15T18:27:14.156Z,8.88
2023-05-15T18:29:52.866Z,8.74
2023-05-15T18:32:26.366Z,8.26
2023-05-15T18:45:17.993Z,10.45
2023-05-15T18:47:58.934Z,10.35
2023-05-15T18:50:32.248Z,10.27
2023-05-15T18:53:05.904Z,10.36
2023-05-15T18:55:39.190Z,10.40
2023-05-15T18:58:12.887Z,9.87
2023-05-15T19:11:54.036Z,9.69
2023-05-15T19:14:27.293Z,9.95
2023-05-15T19:17:00.959Z,9.57
2023-05-15T19:19:34.289Z,9.28
2023-05-15T19:22:07.899Z,10.22
2023-05-15T19:24:41.185Z,10.15
2023-05-15T19:27:16.896Z,10.21
2023-05-15T19:40:27.046Z,9.92
2023-05-15T19:43:03.211Z,9.89
2023-05-15T19:45:36.898Z,9.80
2023-05-15T19:48:10.198Z,10.08
2023-05-15T19:50:44.929Z,10.27
2023-05-15T19:53:18.225Z,10.36
2023-05-15T20:06:08.856Z,10.31
2023-05-15T20:08:48.979Z,10.10
2023-05-15T20:11:22.187Z,10.75
2023-05-15T20:13:56.036Z,10.27
2023-05-15T20:16:29.202Z,10.29
2023-05-15T20:19:02.941Z,10.49
2023-05-15T20:21:38.148Z,10.05
2023-05-15T20:34:26.872Z,10.51
2023-05-15T20:37:08.888Z,10.19
2023-05-15T20:39:42.133Z,10.38
2023-05-15T20:42:15.881Z,10.50
2023-05-15T20:44:50.450Z,11.17
2023-05-15T20:47:23.945Z,10.60
2023-05-15T21:00:35.914Z,10.24
2023-05-15T21:03:09.353Z,10.67
2023-05-15T21:05:42.896Z,10.63
2023-05-15T21:08:16.149Z,10.59
2023-05-15T21:10:49.960Z,10.32
2023-05-15T21:13:23.158Z,10.58
2023-05-15T21:26:13.865Z,9.76
2023-05-15T21:28:53.906Z,9.73
2023-05-15T21:31:27.242Z,9.46
2023-05-15T21:34:01.918Z,9.78
2023-05-15T21:36:35.269Z,9.46
2023-05-15T21:39:08.893Z,9.07
2023-05-15T21:41:44.253Z,9.15
2023-05-15T21:54:32.856Z,8.30
2023-05-15T21:57:14.882Z,9.07
2023-05-15T21:59:48.127Z,8.91
2023-05-15T22:02:21.913Z,9.27
2023-05-15T22:05:01.142Z,9.30
2023-05-15T22:07:40.904Z,9.73
2023-05-15T22:20:54.055Z,9.78
2023-05-15T22:23:27.146Z,9.52
2023-05-15T22:26:00.890Z,9.24
2023-05-15T22:28:34.129Z,9.66
2023-05-15T22:31:07.901Z,9.90
2023-05-15T22:47:44.885Z,9.47
2023-05-15T22:50:25.000Z,9.06
2023-05-15T22:52:58.191Z,9.29
2023-05-15T22:55:31.881Z,9.24
2023-05-15T22:58:05.262Z,9.20
2023-05-15T23:00:38.883Z,9.38
2023-05-15T23:03:14.209Z,9.25
2023-05-15T23:12:39.892Z,9.51
2023-05-15T23:15:13.716Z,9.74
2023-05-15T23:17:46.991Z,9.43
2023-05-15T23:20:22.065Z,9.67
2023-05-15T23:22:55.046Z,9.69
2023-05-15T23:25:28.366Z,9.37
2023-05-15T23:28:01.866Z,9.52
2023-05-15T23:41:13.882Z,9.70
2023-05-15T23:43:47.152Z,10.15
2023-05-15T23:46:20.917Z,9.87
2023-05-15T23:48:54.125Z,9.94
2023-05-15T23:51:27.902Z,10.47
